createdAt,value
2023-03-31T00:02:24.688Z,9.20
2023-03-31T00:04:53.066Z,15.70
2023-03-31T00:07:23.849Z,14.80
2023-03-31T00:10:03.764Z,10.70
2023-03-31T00:12:38.334Z,7.10
2023-03-31T00:15:06.197Z,5.30
2023-03-31T00:17:33.934Z,5.80
2023-03-31T00:20:09.015Z,4.40
2023-03-31T00:22:39.631Z,4.70
2023-03-31T00:25:10.194Z,2.80
2023-03-31T00:27:37.772Z,4.20
2023-03-31T00:30:05.341Z,4.50
2023-03-31T00:32:33.547Z,5.00
2023-03-31T00:35:02.506Z,5.90
2023-03-31T00:37:30.462Z,9.90
2023-03-31T00:39:58.320Z,5.60
2023-03-31T00:42:25.864Z,5.10
2023-03-31T00:44:53.464Z,4.30
2023-03-31T00:47:21.173Z,4.60
2023-03-31T00:49:48.865Z,4.90
2023-03-31T00:52:17.358Z,4.30
2023-03-31T00:54:45.019Z,4.40
2023-03-31T00:57:12.641Z,4.70
2023-03-31T00:59:40.351Z,4.60
2023-03-31T01:02:08.154Z,4.20
2023-03-31T01:04:36.257Z,5.20
2023-03-31T01:07:04.455Z,4.30
2023-03-31T01:09:35.286Z,5.10
2023-03-31T01:12:02.948Z,4.80
2023-03-31T01:14:30.715Z,4.20
2023-03-31T01:16:58.399Z,5.20
2023-03-31T01:19:26.128Z,5.50
2023-03-31T01:21:53.887Z,5.30
2023-03-31T01:24:22.670Z,5.50
2023-03-31T01:26:50.205Z,5.30
2023-03-31T01:29:17.775Z,5.70
2023-03-31T01:31:45.456Z,4.40
2023-03-31T01:34:13.141Z,4.30
2023-03-31T01:36:41.276Z,3.40
2023-03-31T01:39:08.863Z,3.30
2023-03-31T01:41:36.487Z,4.00
2023-03-31T01:44:04.025Z,3.00
2023-03-31T01:46:31.661Z,3.30
2023-03-31T01:48:59.341Z,3.30
2023-03-31T01:51:27.052Z,2.80
2023-03-31T01:53:54.703Z,3.20
2023-03-31T01:56:22.464Z,3.00
2023-03-31T01:58:51.087Z,3.60
2023-03-31T02:01:19.931Z,2.60
2023-03-31T02:03:47.525Z,3.20
2023-03-31T02:06:15.431Z,3.00
2023-03-31T02:08:43.155Z,3.20
2023-03-31T02:11:10.822Z,3.20
2023-03-31T02:13:38.591Z,3.30
2023-03-31T02:16:06.254Z,3.30
2023-03-31T02:18:38.507Z,3.30
2023-03-31T02:21:06.045Z,3.20
2023-03-31T02:23:33.918Z,3.00
2023-03-31T02:26:01.486Z,3.20
2023-03-31T02:28:28.997Z,3.30
2023-03-31T02:30:56.600Z,2.90
2023-03-31T02:33:24.122Z,3.50
2023-03-31T02:35:51.915Z,3.40
2023-03-31T02:38:19.621Z,2.90
2023-03-31T02:40:47.324Z,3.10
2023-03-31T02:43:15.382Z,3.10
2023-03-31T02:45:43.037Z,2.90
2023-03-31T02:48:10.752Z,3.80
2023-03-31T02:50:38.600Z,3.20
2023-03-31T02:53:06.264Z,2.90
2023-03-31T02:55:37.736Z,3.10
2023-03-31T02:58:05.618Z,3.40
2023-03-31T03:00:33.526Z,5.00
2023-03-31T03:03:01.613Z,3.10
2023-03-31T03:05:29.595Z,3.10
2023-03-31T03:07:57.481Z,2.40
2023-03-31T03:10:25.565Z,3.10
2023-03-31T03:12:53.268Z,2.80
2023-03-31T03:15:21.058Z,3.20
2023-03-31T03:17:48.784Z,2.80
2023-03-31T03:20:16.461Z,3.50
2023-03-31T03:22:44.058Z,3.60
2023-03-31T03:25:11.668Z,3.90
2023-03-31T03:27:39.268Z,5.10
2023-03-31T03:30:08.289Z,4.10
2023-03-31T03:32:35.827Z,3.90
2023-03-31T03:35:04.108Z,3.80
2023-03-31T03:37:31.713Z,3.40
2023-03-31T03:39:59.316Z,3.90
2023-03-31T03:42:28.735Z,3.10
2023-03-31T03:44:56.590Z,3.30
2023-03-31T03:47:24.214Z,3.30
2023-03-31T03:49:52.306Z,3.20
2023-03-31T03:52:20.562Z,3.90
2023-03-31T03:54:48.233Z,4.20
2023-03-31T03:57:16.888Z,3.60
2023-03-31T03:59:46.530Z,4.10
2023-03-31T04:02:14.471Z,3.00
2023-03-31T04:04:42.211Z,3.00
2023-03-31T04:07:09.843Z,3.80
2023-03-31T04:09:37.409Z,2.90
2023-03-31T04:12:05.431Z,3.30
2023-03-31T04:14:32.976Z,4.00
2023-03-31T04:17:00.484Z,3.70
2023-03-31T04:19:28.362Z,4.30
2023-03-31T04:22:02.908Z,3.40
2023-03-31T04:24:32.976Z,4.00
2023-03-31T04:27:03.304Z,3.60
2023-03-31T04:29:34.006Z,4.40
2023-03-31T04:32:01.940Z,4.10
2023-03-31T04:34:35.898Z,3.90
2023-03-31T04:37:04.333Z,3.20
2023-03-31T04:39:31.997Z,4.00
2023-03-31T04:41:59.677Z,3.90
2023-03-31T04:44:27.733Z,4.50
2023-03-31T04:46:55.458Z,5.00
2023-03-31T04:49:23.062Z,4.70
2023-03-31T04:51:51.035Z,5.00
2023-03-31T04:54:18.660Z,5.70
2023-03-31T04:56:46.466Z,5.40
2023-03-31T04:59:14.196Z,4.30
2023-03-31T05:01:45.182Z,5.00
2023-03-31T05:04:13.767Z,6.20
2023-03-31T05:06:41.584Z,8.70
2023-03-31T05:09:10.163Z,9.60
2023-03-31T05:11:38.462Z,9.80
2023-03-31T05:14:06.405Z,11.20
2023-03-31T05:16:34.276Z,14.60
2023-03-31T05:19:02.233Z,13.90
2023-03-31T05:21:30.826Z,13.30
2023-03-31T05:23:58.443Z,10.80
2023-03-31T05:26:26.625Z,8.80
2023-03-31T05:28:56.218Z,6.30
2023-03-31T05:31:23.823Z,5.80
2023-03-31T05:33:52.048Z,6.50
2023-03-31T05:36:23.831Z,6.10
2023-03-31T05:38:52.545Z,6.30
2023-03-31T05:41:23.093Z,6.60
2023-03-31T05:43:50.730Z,6.50
2023-03-31T05:46:21.634Z,6.70
2023-03-31T05:48:49.946Z,6.70
2023-03-31T05:51:17.763Z,6.80
2023-03-31T05:53:46.050Z,7.50
2023-03-31T05:56:13.821Z,6.70
2023-03-31T05:58:41.358Z,5.20
2023-03-31T06:01:09.622Z,6.20
2023-03-31T06:03:37.685Z,5.80
2023-03-31T06:06:06.390Z,5.40
2023-03-31T06:08:34.028Z,7.20
2023-03-31T06:11:02.383Z,8.50
2023-03-31T06:13:29.975Z,7.60
2023-03-31T06:15:58.361Z,4.80
2023-03-31T06:18:26.081Z,4.60
2023-03-31T06:20:53.704Z,6.50
2023-03-31T06:23:21.639Z,5.50
2023-03-31T06:25:51.984Z,6.10
2023-03-31T06:28:20.017Z,4.40
2023-03-31T06:30:47.920Z,5.80
2023-03-31T06:33:16.492Z,4.00
2023-03-31T06:35:44.328Z,4.70
2023-03-31T06:38:12.237Z,5.40
2023-03-31T06:40:40.375Z,3.80
2023-03-31T06:43:08.030Z,3.90
2023-03-31T06:45:35.905Z,4.60
2023-03-31T06:48:03.431Z,4.50
2023-03-31T06:50:31.344Z,4.40
2023-03-31T06:53:00.167Z,4.60
2023-03-31T06:55:27.965Z,6.40
2023-03-31T06:57:55.849Z,4.70
2023-03-31T07:00:26.129Z,3.30
2023-03-31T07:02:53.843Z,3.40
2023-03-31T07:05:26.932Z,2.60
2023-03-31T07:07:54.472Z,2.70
2023-03-31T07:10:23.109Z,2.60
2023-03-31T07:12:50.913Z,2.60
2023-03-31T07:15:18.481Z,2.70
2023-03-31T07:17:46.187Z,2.20
2023-03-31T07:20:15.166Z,2.10
2023-03-31T07:22:42.718Z,2.20
2023-03-31T07:25:10.816Z,2.20
2023-03-31T07:27:39.080Z,2.50
2023-03-31T07:30:06.681Z,2.40
2023-03-31T07:32:36.029Z,2.20
2023-03-31T07:35:12.390Z,1.60
2023-03-31T07:37:41.305Z,2.10
2023-03-31T07:40:09.609Z,1.50
2023-03-31T07:42:37.671Z,1.20
2023-03-31T07:45:08.108Z,1.60
2023-03-31T07:47:36.428Z,1.60
2023-03-31T07:50:04.743Z,2.10
2023-03-31T07:52:33.262Z,2.00
2023-03-31T07:55:01.088Z,2.00
2023-03-31T07:57:28.974Z,1.90
2023-03-31T07:59:56.725Z,2.40
2023-03-31T08:02:24.308Z,2.60
2023-03-31T08:04:55.079Z,1.60
2023-03-31T08:07:22.620Z,1.50
2023-03-31T08:09:50.265Z,1.20
2023-03-31T08:12:17.971Z,1.70
2023-03-31T08:14:45.469Z,2.00
2023-03-31T08:17:13.022Z,1.80
2023-03-31T08:19:41.905Z,2.30
2023-03-31T08:22:09.585Z,1.90
2023-03-31T08:24:37.652Z,2.00
2023-03-31T08:29:39.796Z,1.50
2023-03-31T08:32:07.630Z,1.40
2023-03-31T08:34:38.640Z,1.70
2023-03-31T08:37:09.445Z,1.30
2023-03-31T08:39:37.426Z,1.40
2023-03-31T08:42:05.381Z,1.90
2023-03-31T08:44:36.360Z,1.40
2023-03-31T08:47:05.426Z,1.20
2023-03-31T08:49:33.042Z,1.60
2023-03-31T08:52:00.596Z,1.80
2023-03-31T08:54:28.342Z,1.80
2023-03-31T08:56:56.223Z,2.00
2023-03-31T08:59:24.013Z,1.70
2023-03-31T09:01:56.593Z,1.80
2023-03-31T09:04:25.128Z,1.50
2023-03-31T09:06:53.034Z,1.60
2023-03-31T09:09:21.221Z,1.10
2023-03-31T09:11:48.824Z,1.00
2023-03-31T09:14:16.630Z,1.20
2023-03-31T09:16:46.929Z,0.90
2023-03-31T09:19:15.220Z,1.30
2023-03-31T09:21:43.189Z,0.90
2023-03-31T09:24:11.031Z,0.80
2023-03-31T09:26:39.407Z,0.90
2023-03-31T09:29:07.456Z,0.90
2023-03-31T09:31:36.689Z,0.90
2023-03-31T09:34:04.363Z,1.10
2023-03-31T09:36:33.272Z,0.80
2023-03-31T09:39:02.531Z,0.60
2023-03-31T09:41:32.410Z,0.90
2023-03-31T09:44:01.547Z,0.70
2023-03-31T09:46:29.439Z,0.70
2023-03-31T09:48:58.161Z,2.70
2023-03-31T09:51:25.798Z,1.10
2023-03-31T09:53:54.805Z,1.00
2023-03-31T09:56:26.055Z,1.00
2023-03-31T09:58:53.620Z,1.30
2023-03-31T10:01:23.637Z,0.80
2023-03-31T10:03:51.310Z,0.90
2023-03-31T10:06:18.927Z,1.20
2023-03-31T10:08:46.515Z,1.50
2023-03-31T10:11:14.203Z,3.10
2023-03-31T10:13:42.216Z,1.10
2023-03-31T10:16:09.800Z,0.80
2023-03-31T10:18:37.985Z,1.40
2023-03-31T10:21:05.894Z,1.40
2023-03-31T10:23:33.890Z,1.40
2023-03-31T10:26:01.718Z,1.80
2023-03-31T10:28:29.396Z,1.20
2023-03-31T10:30:58.110Z,1.00
2023-03-31T10:33:26.684Z,0.80
2023-03-31T10:35:54.445Z,1.10
2023-03-31T10:38:22.053Z,1.20
2023-03-31T10:40:49.682Z,0.70
2023-03-31T10:43:17.473Z,0.90
2023-03-31T10:45:45.419Z,1.20
2023-03-31T10:48:26.199Z,0.70
2023-03-31T10:50:56.393Z,0.70
2023-03-31T10:53:25.611Z,1.20
2023-03-31T10:55:56.452Z,1.10
2023-03-31T10:58:25.098Z,1.20
2023-03-31T11:00:53.081Z,1.00
2023-03-31T11:03:21.385Z,0.70
2023-03-31T11:05:48.985Z,0.80
2023-03-31T11:08:18.672Z,0.70
2023-03-31T11:10:47.588Z,0.90
2023-03-31T11:13:15.348Z,0.80
2023-03-31T11:15:42.950Z,1.40
2023-03-31T11:18:12.048Z,1.00
2023-03-31T11:20:40.180Z,1.00
2023-03-31T11:23:07.788Z,0.90
2023-03-31T11:25:36.054Z,1.00
2023-03-31T11:28:03.639Z,0.80
2023-03-31T11:30:32.364Z,1.10
2023-03-31T11:33:00.876Z,0.90
2023-03-31T11:35:28.723Z,0.80
2023-03-31T11:37:56.913Z,0.90
2023-03-31T11:40:27.916Z,1.20
2023-03-31T11:42:58.806Z,1.20
2023-03-31T11:45:50.983Z,1.40
2023-03-31T11:48:26.624Z,1.00
2023-03-31T11:50:55.263Z,0.80
2023-03-31T11:53:28.416Z,0.90
2023-03-31T11:55:56.504Z,0.70
2023-03-31T11:58:30.817Z,0.80
2023-03-31T12:00:59.696Z,0.80
2023-03-31T12:03:36.327Z,0.60
2023-03-31T12:06:08.715Z,0.70
2023-03-31T12:08:37.275Z,0.50
2023-03-31T12:11:08.678Z,0.50
2023-03-31T12:13:36.929Z,0.60
2023-03-31T12:16:04.975Z,0.90
2023-03-31T12:18:35.483Z,0.60
2023-03-31T12:21:04.911Z,0.50
2023-03-31T12:23:32.753Z,1.00
2023-03-31T12:26:01.641Z,0.80
2023-03-31T12:28:32.898Z,0.60
2023-03-31T12:31:00.604Z,0.70
2023-03-31T12:33:28.364Z,0.70
2023-03-31T12:38:47.418Z,0.50
2023-03-31T12:41:34.495Z,0.50
2023-03-31T12:44:03.501Z,0.80
2023-03-31T12:46:36.045Z,0.80
2023-03-31T12:49:03.761Z,1.00
2023-03-31T12:51:32.368Z,1.40
2023-03-31T12:54:01.247Z,0.90
2023-03-31T12:56:33.471Z,0.50
2023-03-31T12:59:02.985Z,0.50
2023-03-31T13:01:48.103Z,0.50
2023-03-31T13:04:17.544Z,0.80
2023-03-31T13:06:47.431Z,0.60
2023-03-31T13:09:36.700Z,0.70
2023-03-31T13:12:06.227Z,0.60
2023-03-31T13:14:38.474Z,0.60
2023-03-31T13:17:07.974Z,1.00
2023-03-31T13:19:35.829Z,1.10
2023-03-31T13:22:06.351Z,0.90
2023-03-31T13:24:34.037Z,0.90
2023-03-31T13:27:03.558Z,0.80
2023-03-31T13:29:34.818Z,0.60
2023-03-31T13:32:03.125Z,0.30
2023-03-31T13:34:35.984Z,0.70
2023-03-31T13:37:06.797Z,0.50
2023-03-31T13:39:36.116Z,0.30
2023-03-31T13:42:08.478Z,0.70
2023-03-31T13:44:41.293Z,0.50
2023-03-31T13:47:09.717Z,0.70
2023-03-31T13:49:41.855Z,0.70
2023-03-31T13:52:09.981Z,1.00
2023-03-31T13:54:38.109Z,0.60
2023-03-31T13:57:05.940Z,1.00
2023-03-31T13:59:35.425Z,0.50
2023-03-31T14:02:11.247Z,0.80
2023-03-31T14:04:39.000Z,0.70
2023-03-31T14:07:12.552Z,0.80
2023-03-31T14:09:53.218Z,0.80
2023-03-31T14:12:22.737Z,0.50
2023-03-31T14:14:52.352Z,0.80
2023-03-31T14:17:19.928Z,0.50
2023-03-31T14:19:49.845Z,0.40
2023-03-31T14:22:21.889Z,0.50
2023-03-31T14:24:49.617Z,0.70
2023-03-31T14:27:18.841Z,0.90
2023-03-31T14:29:49.848Z,0.60
2023-03-31T14:32:20.730Z,0.60
2023-03-31T14:34:54.531Z,0.70
2023-03-31T14:37:25.416Z,0.70
2023-03-31T14:39:55.054Z,0.40
2023-03-31T14:42:23.153Z,0.50
2023-03-31T14:44:51.085Z,0.80
2023-03-31T14:47:18.752Z,0.90
2023-03-31T14:49:50.189Z,0.70
2023-03-31T14:52:18.741Z,0.70
2023-03-31T14:54:49.129Z,1.00
2023-03-31T14:57:19.834Z,1.80
2023-03-31T14:59:48.505Z,1.20
2023-03-31T15:02:21.073Z,2.00
2023-03-31T15:04:51.600Z,1.60
2023-03-31T15:07:25.194Z,1.30
2023-03-31T15:09:53.626Z,2.80
2023-03-31T15:12:23.705Z,2.90
2023-03-31T15:14:51.402Z,2.60
2023-03-31T15:17:19.408Z,3.00
2023-03-31T15:19:47.284Z,2.10
2023-03-31T15:22:16.259Z,2.30
2023-03-31T15:24:44.128Z,2.80
2023-03-31T15:27:14.927Z,2.20
2023-03-31T15:33:18.929Z,2.70
2023-03-31T15:35:48.689Z,6.80
2023-03-31T15:38:18.291Z,5.40
2023-03-31T15:40:45.930Z,4.20
2023-03-31T15:43:20.310Z,2.80
2023-03-31T15:45:53.099Z,4.30
2023-03-31T15:48:20.871Z,6.00
2023-03-31T15:50:48.999Z,2.80
2023-03-31T15:53:17.525Z,4.10
2023-03-31T15:55:45.739Z,5.20
2023-03-31T15:58:13.422Z,5.20
2023-03-31T16:00:41.091Z,4.00
2023-03-31T16:03:09.932Z,2.30
2023-03-31T16:05:51.304Z,2.00
2023-03-31T16:08:21.793Z,2.80
2023-03-31T16:10:51.686Z,2.70
2023-03-31T16:13:23.121Z,2.00
2023-03-31T16:15:50.809Z,3.00
2023-03-31T16:18:18.358Z,2.20
2023-03-31T16:20:46.289Z,1.80
2023-03-31T16:23:13.900Z,2.30
2023-03-31T16:25:42.260Z,2.80
2023-03-31T16:28:09.826Z,3.80
2023-03-31T16:30:37.714Z,2.60
2023-03-31T16:33:05.590Z,2.60
2023-03-31T16:35:33.339Z,2.20
2023-03-31T16:38:07.376Z,2.40
2023-03-31T16:40:34.949Z,2.10
2023-03-31T16:43:02.513Z,1.70
2023-03-31T16:45:32.067Z,2.20
2023-03-31T16:48:08.962Z,1.70
2023-03-31T16:50:43.121Z,2.00
2023-03-31T16:53:11.849Z,3.30
2023-03-31T16:55:40.677Z,2.70
2023-03-31T16:58:11.052Z,2.60
2023-03-31T17:00:40.736Z,2.50
2023-03-31T17:03:08.993Z,3.10
2023-03-31T17:05:37.127Z,3.70
2023-03-31T17:08:04.907Z,4.40
2023-03-31T17:10:32.515Z,5.90
2023-03-31T17:13:01.115Z,6.20
2023-03-31T17:15:31.811Z,5.80
2023-03-31T17:17:59.856Z,6.80
2023-03-31T17:20:27.681Z,6.70
2023-03-31T17:22:55.308Z,6.70
2023-03-31T17:25:23.057Z,4.80
2023-03-31T17:27:55.858Z,5.40
2023-03-31T17:30:23.560Z,5.60
2023-03-31T17:32:52.252Z,3.20
2023-03-31T17:35:23.639Z,2.20
2023-03-31T17:37:53.723Z,3.30
2023-03-31T17:40:21.785Z,3.80
2023-03-31T17:42:49.566Z,4.90
2023-03-31T17:45:17.360Z,3.70
2023-03-31T17:47:46.333Z,4.50
2023-03-31T17:50:14.240Z,5.20
2023-03-31T17:52:42.225Z,4.60
2023-03-31T17:55:09.952Z,5.80
2023-03-31T17:57:39.184Z,6.00
2023-03-31T18:00:09.004Z,6.50
2023-03-31T18:02:37.350Z,8.40
2023-03-31T18:05:06.372Z,8.10
2023-03-31T18:07:35.489Z,7.50
2023-03-31T18:10:05.500Z,6.70
2023-03-31T18:12:34.820Z,7.20
2023-03-31T18:15:05.798Z,5.70
2023-03-31T18:17:34.060Z,9.70
2023-03-31T18:20:01.658Z,9.40
2023-03-31T18:22:29.338Z,8.20
2023-03-31T18:24:57.421Z,7.50
2023-03-31T18:27:25.341Z,6.90
2023-03-31T18:29:53.630Z,6.70
2023-03-31T18:32:21.366Z,5.60
2023-03-31T18:34:49.341Z,6.90
2023-03-31T18:37:17.185Z,6.00
2023-03-31T18:39:45.007Z,6.00
2023-03-31T18:42:12.634Z,6.40
2023-03-31T18:45:00.453Z,5.70
2023-03-31T18:47:44.110Z,6.50
2023-03-31T18:50:39.995Z,6.60
2023-03-31T18:53:15.374Z,5.70
2023-03-31T18:55:45.954Z,6.90
2023-03-31T18:58:15.172Z,10.60
2023-03-31T19:00:51.999Z,16.80
2023-03-31T19:03:19.901Z,19.60
2023-03-31T19:05:48.318Z,16.10
2023-03-31T19:08:16.444Z,13.60
2023-03-31T19:10:44.024Z,13.00
2023-03-31T19:13:15.721Z,11.10
2023-03-31T19:15:43.970Z,11.70
2023-03-31T19:18:32.800Z,8.80
2023-03-31T19:21:02.833Z,9.40
2023-03-31T19:23:34.803Z,11.00
2023-03-31T19:26:03.163Z,10.50
2023-03-31T19:28:31.321Z,10.80
2023-03-31T19:31:00.224Z,10.50
2023-03-31T19:33:28.461Z,8.60
2023-03-31T19:35:56.772Z,8.20
2023-03-31T19:38:27.278Z,8.80
2023-03-31T19:40:54.839Z,9.60
2023-03-31T19:43:23.184Z,8.30
2023-03-31T19:45:50.907Z,7.60
2023-03-31T19:48:19.431Z,9.50
2023-03-31T19:50:47.655Z,15.80
2023-03-31T19:53:15.397Z,11.40
2023-03-31T19:55:43.373Z,13.90
2023-03-31T19:58:11.132Z,13.60
2023-03-31T20:00:38.787Z,16.40
2023-03-31T20:03:11.817Z,8.60
2023-03-31T20:05:40.104Z,9.30
2023-03-31T20:08:08.172Z,8.80
2023-03-31T20:10:35.728Z,9.10
2023-03-31T20:13:03.575Z,8.50
2023-03-31T20:15:31.577Z,10.00
2023-03-31T20:17:59.618Z,10.10
2023-03-31T20:20:27.588Z,9.10
2023-03-31T20:22:55.446Z,9.60
2023-03-31T20:25:23.211Z,9.60
2023-03-31T20:27:50.976Z,8.50
2023-03-31T20:30:18.678Z,10.30
2023-03-31T20:32:46.256Z,9.10
2023-03-31T20:35:13.829Z,9.90
2023-03-31T20:37:41.792Z,10.10
2023-03-31T20:40:09.440Z,7.70
2023-03-31T20:42:37.585Z,12.90
2023-03-31T20:45:05.081Z,10.60
2023-03-31T20:47:35.386Z,10.50
2023-03-31T20:50:03.232Z,11.40
2023-03-31T20:52:30.880Z,7.80
2023-03-31T20:54:58.681Z,9.50
2023-03-31T20:57:26.585Z,9.50
2023-03-31T20:59:54.877Z,10.40
2023-03-31T21:02:22.375Z,10.10
2023-03-31T21:04:51.251Z,11.40
2023-03-31T21:07:18.979Z,10.90
2023-03-31T21:09:46.832Z,12.30
2023-03-31T21:12:14.465Z,14.30
2023-03-31T21:14:42.026Z,11.90
2023-03-31T21:17:09.636Z,6.60
2023-03-31T21:19:37.394Z,8.30
2023-03-31T21:22:04.881Z,8.50
2023-03-31T21:24:32.433Z,8.50
2023-03-31T21:29:41.463Z,9.80
2023-03-31T21:32:09.228Z,15.20
2023-03-31T21:34:36.843Z,17.70
2023-03-31T21:37:04.997Z,18.80
2023-03-31T21:39:32.629Z,12.80
2023-03-31T21:42:00.315Z,13.70
2023-03-31T21:44:27.886Z,15.30
2023-03-31T21:46:55.494Z,9.60
2023-03-31T21:49:23.664Z,9.90
2023-03-31T21:51:51.185Z,7.20
2023-03-31T21:54:18.880Z,5.90
2023-03-31T21:56:46.502Z,3.90
2023-03-31T21:59:14.057Z,3.30
2023-03-31T22:01:42.379Z,2.40
2023-03-31T22:04:10.141Z,2.90
2023-03-31T22:06:39.276Z,2.40
2023-03-31T22:09:06.986Z,2.10
2023-03-31T22:11:34.585Z,1.90
2023-03-31T22:14:02.662Z,2.40
2023-03-31T22:16:30.409Z,2.60
2023-03-31T22:19:00.228Z,26.90
2023-03-31T22:21:27.886Z,6.90
2023-03-31T22:23:56.567Z,3.00
2023-03-31T22:26:24.081Z,1.20
2023-03-31T22:28:51.699Z,1.20
2023-03-31T22:31:19.407Z,0.90
2023-03-31T22:33:47.207Z,0.80
2023-03-31T22:36:14.771Z,1.00
2023-03-31T22:38:42.340Z,1.10
2023-03-31T22:41:09.978Z,1.40
2023-03-31T22:43:37.736Z,1.10
2023-03-31T22:46:05.737Z,1.40
2023-03-31T22:48:35.643Z,2.30
2023-03-31T22:51:04.811Z,2.60
2023-03-31T22:53:32.325Z,2.90
2023-03-31T22:56:00.581Z,4.30
2023-03-31T22:58:28.219Z,4.40
2023-03-31T23:00:56.181Z,3.80
2023-03-31T23:03:23.989Z,3.40
2023-03-31T23:05:51.465Z,3.50
2023-03-31T23:08:19.718Z,3.60
2023-03-31T23:10:47.336Z,4.30
2023-03-31T23:13:15.882Z,4.60
2023-03-31T23:15:43.522Z,4.00
2023-03-31T23:18:11.108Z,3.80
2023-03-31T23:20:38.758Z,3.80
2023-03-31T23:23:06.339Z,3.40
2023-03-31T23:25:34.039Z,3.30
2023-03-31T23:28:02.106Z,2.80
2023-03-31T23:30:29.652Z,2.60
2023-03-31T23:32:57.729Z,1.90
2023-03-31T23:35:25.741Z,1.90
2023-03-31T23:37:53.356Z,1.60
2023-03-31T23:40:21.246Z,1.40
2023-03-31T23:42:49.072Z,1.10
2023-03-31T23:45:17.077Z,1.00
2023-03-31T23:47:44.712Z,1.00
2023-03-31T23:50:12.392Z,0.80
2023-03-31T23:52:39.924Z,0.60
2023-03-31T23:55:07.905Z,0.90
2023-03-31T23:57:35.597Z,0.70
